sensor_id;sensor_type;location;lat;lon;timestamp;pressure;altitude;pressure_sealevel;temperature;humidity
84051;BME280;74137;50.136;19.040;2024-01-15T00:01:45;97101.02;;;-0.24;69.11
84051;BME280;74137;50.136;19.040;2024-01-15T00:04:18;97100.85;;;-0.24;69.18
84051;BME280;74137;50.136;19.040;2024-01-15T00:06:49;97098.43;;;-0.24;69.17
84051;BME280;74137;50.136;19.040;2024-01-15T00:09:22;97088.83;;;-0.25;68.77
84051;BME280;74137;50.136;19.040;2024-01-15T00:11:50;97087.21;;;-0.24;69.11
84051;BME280;74137;50.136;19.040;2024-01-15T00:14:18;97084.45;;;-0.24;69.05
84051;BME280;74137;50.136;19.040;2024-01-15T00:16:50;97076.55;;;-0.25;69.03
84051;BME280;74137;50.136;19.040;2024-01-15T00:19:24;97073.00;;;-0.26;68.99
84051;BME280;74137;50.136;19.040;2024-01-15T00:21:56;97069.74;;;-0.26;68.85
84051;BME280;74137;50.136;19.040;2024-01-15T00:24:29;97062.50;;;-0.26;68.94
84051;BME280;74137;50.136;19.040;2024-01-15T00:27:00;97055.08;;;-0.26;68.76
84051;BME280;74137;50.136;19.040;2024-01-15T00:29:33;97047.32;;;-0.27;68.84
84051;BME280;74137;50.136;19.040;2024-01-15T00:32:04;97048.23;;;-0.28;68.61
84051;BME280;74137;50.136;19.040;2024-01-15T00:34:37;97042.09;;;-0.29;68.71
84051;BME280;74137;50.136;19.040;2024-01-15T00:37:07;97034.73;;;-0.30;68.79
84051;BME280;74137;50.136;19.040;2024-01-15T00:39:40;97033.84;;;-0.30;68.62
84051;BME280;74137;50.136;19.040;2024-01-15T00:42:08;97039.04;;;-0.30;68.67
84051;BME280;74137;50.136;19.040;2024-01-15T00:44:41;97041.47;;;-0.31;68.73
84051;BME280;74137;50.136;19.040;2024-01-15T00:47:09;97048.25;;;-0.32;68.49
84051;BME280;74137;50.136;19.040;2024-01-15T00:49:47;97047.12;;;-0.34;68.80
84051;BME280;74137;50.136;19.040;2024-01-15T00:52:18;97040.41;;;-0.34;68.65
84051;BME280;74137;50.136;19.040;2024-01-15T00:54:53;97033.52;;;-0.34;69.04
84051;BME280;74137;50.136;19.040;2024-01-15T00:57:24;97029.71;;;-0.34;68.93
84051;BME280;74137;50.136;19.040;2024-01-15T00:59:52;97025.11;;;-0.35;69.15
84051;BME280;74137;50.136;19.040;2024-01-15T01:02:26;97028.39;;;-0.35;69.08
84051;BME280;74137;50.136;19.040;2024-01-15T01:04:59;97023.50;;;-0.34;69.22
84051;BME280;74137;50.136;19.040;2024-01-15T01:07:29;97018.84;;;-0.34;68.92
84051;BME280;74137;50.136;19.040;2024-01-15T01:09:59;97016.77;;;-0.34;68.83
84051;BME280;74137;50.136;19.040;2024-01-15T01:12:30;97016.82;;;-0.35;69.25
84051;BME280;74137;50.136;19.040;2024-01-15T01:15:07;97016.84;;;-0.36;68.73
84051;BME280;74137;50.136;19.040;2024-01-15T01:17:40;97014.95;;;-0.36;69.45
84051;BME280;74137;50.136;19.040;2024-01-15T01:20:09;97006.60;;;-0.34;69.43
84051;BME280;74137;50.136;19.040;2024-01-15T01:22:46;96997.95;;;-0.33;69.05
84051;BME280;74137;50.136;19.040;2024-01-15T01:25:14;96997.89;;;-0.32;69.13
84051;BME280;74137;50.136;19.040;2024-01-15T01:27:45;96993.59;;;-0.32;68.99
84051;BME280;74137;50.136;19.040;2024-01-15T01:30:13;96993.80;;;-0.33;68.78
84051;BME280;74137;50.136;19.040;2024-01-15T01:32:41;96985.88;;;-0.33;69.00
84051;BME280;74137;50.136;19.040;2024-01-15T01:35:14;96981.23;;;-0.34;68.78
84051;BME280;74137;50.136;19.040;2024-01-15T01:37:45;96980.76;;;-0.34;68.53
84051;BME280;74137;50.136;19.040;2024-01-15T01:40:17;96976.10;;;-0.35;68.50
84051;BME280;74137;50.136;19.040;2024-01-15T01:42:50;96973.90;;;-0.36;68.42
84051;BME280;74137;50.136;19.040;2024-01-15T01:45:23;96966.33;;;-0.36;68.04
84051;BME280;74137;50.136;19.040;2024-01-15T01:47:56;96961.45;;;-0.34;68.15
84051;BME280;74137;50.136;19.040;2024-01-15T01:50:29;96959.35;;;-0.34;68.05
84051;BME280;74137;50.136;19.040;2024-01-15T01:53:00;96953.33;;;-0.34;67.64
84051;BME280;74137;50.136;19.040;2024-01-15T01:55:29;96946.10;;;-0.35;68.23
84051;BME280;74137;50.136;19.040;2024-01-15T01:58:04;96940.21;;;-0.34;67.82
84051;BME280;74137;50.136;19.040;2024-01-15T02:00:37;96931.92;;;-0.33;67.52
84051;BME280;74137;50.136;19.040;2024-01-15T02:03:08;96935.56;;;-0.34;67.53
84051;BME280;74137;50.136;19.040;2024-01-15T02:05:42;96933.54;;;-0.35;67.49
84051;BME280;74137;50.136;19.040;2024-01-15T02:08:21;96924.79;;;-0.36;67.25
84051;BME280;74137;50.136;19.040;2024-01-15T02:10:54;96933.95;;;-0.37;67.33
84051;BME280;74137;50.136;19.040;2024-01-15T02:13:24;96924.35;;;-0.38;67.00
84051;BME280;74137;50.136;19.040;2024-01-15T02:15:57;96921.77;;;-0.38;67.00
84051;BME280;74137;50.136;19.040;2024-01-15T02:18:27;96920.60;;;-0.39;67.15
84051;BME280;74137;50.136;19.040;2024-01-15T02:21:01;96926.50;;;-0.40;67.29
84051;BME280;74137;50.136;19.040;2024-01-15T02:23:31;96921.92;;;-0.42;67.26
84051;BME280;74137;50.136;19.040;2024-01-15T02:26:04;96908.13;;;-0.42;66.99
84051;BME280;74137;50.136;19.040;2024-01-15T02:28:35;96908.62;;;-0.41;67.12
84051;BME280;74137;50.136;19.040;2024-01-15T02:31:06;96911.06;;;-0.42;66.98
84051;BME280;74137;50.136;19.040;2024-01-15T02:33:39;96910.32;;;-0.45;67.22
84051;BME280;74137;50.136;19.040;2024-01-15T02:36:10;96908.14;;;-0.46;66.86
84051;BME280;74137;50.136;19.040;2024-01-15T02:38:41;96903.88;;;-0.47;67.16
84051;BME280;74137;50.136;19.040;2024-01-15T02:41:11;96897.02;;;-0.48;66.81
84051;BME280;74137;50.136;19.040;2024-01-15T02:43:44;96893.27;;;-0.49;66.77
84051;BME280;74137;50.136;19.040;2024-01-15T02:46:14;96886.41;;;-0.50;66.88
84051;BME280;74137;50.136;19.040;2024-01-15T02:48:51;96877.66;;;-0.51;66.78
84051;BME280;74137;50.136;19.040;2024-01-15T02:51:22;96873.90;;;-0.51;66.55
84051;BME280;74137;50.136;19.040;2024-01-15T02:53:57;96868.77;;;-0.52;66.46
84051;BME280;74137;50.136;19.040;2024-01-15T02:56:28;96863.59;;;-0.53;66.22
84051;BME280;74137;50.136;19.040;2024-01-15T02:59:01;96861.05;;;-0.53;66.71
84051;BME280;74137;50.136;19.040;2024-01-15T03:01:34;96856.26;;;-0.54;66.56
84051;BME280;74137;50.136;19.040;2024-01-15T03:04:05;96852.48;;;-0.54;66.50
84051;BME280;74137;50.136;19.040;2024-01-15T03:06:38;96849.54;;;-0.54;66.18
84051;BME280;74137;50.136;19.040;2024-01-15T03:09:10;96846.27;;;-0.54;66.13
84051;BME280;74137;50.136;19.040;2024-01-15T03:11:41;96841.91;;;-0.54;66.32
84051;BME280;74137;50.136;19.040;2024-01-15T03:14:14;96847.58;;;-0.52;66.23
84051;BME280;74137;50.136;19.040;2024-01-15T03:16:45;96832.59;;;-0.53;66.10
84051;BME280;74137;50.136;19.040;2024-01-15T03:19:15;96827.73;;;-0.52;66.26
84051;BME280;74137;50.136;19.040;2024-01-15T03:21:46;96826.94;;;-0.50;65.77
84051;BME280;74137;50.136;19.040;2024-01-15T03:24:16;96818.48;;;-0.49;65.87
84051;BME280;74137;50.136;19.040;2024-01-15T03:26:49;96813.06;;;-0.48;65.60
84051;BME280;74137;50.136;19.040;2024-01-15T03:29:22;96814.79;;;-0.48;66.08
84051;BME280;74137;50.136;19.040;2024-01-15T03:31:53;96815.48;;;-0.48;66.07
84051;BME280;74137;50.136;19.040;2024-01-15T03:34:26;96808.23;;;-0.47;65.89
84051;BME280;74137;50.136;19.040;2024-01-15T03:36:57;96807.38;;;-0.48;65.88
84051;BME280;74137;50.136;19.040;2024-01-15T03:39:27;96806.52;;;-0.48;65.91
84051;BME280;74137;50.136;19.040;2024-01-15T03:41:55;96809.98;;;-0.49;65.64
84051;BME280;74137;50.136;19.040;2024-01-15T03:44:28;96805.30;;;-0.52;65.50
84051;BME280;74137;50.136;19.040;2024-01-15T03:46:59;96800.77;;;-0.54;65.60
84051;BME280;74137;50.136;19.040;2024-01-15T03:49:34;96793.71;;;-0.54;66.08
84051;BME280;74137;50.136;19.040;2024-01-15T03:52:07;96787.52;;;-0.55;65.71
84051;BME280;74137;50.136;19.040;2024-01-15T03:54:37;96783.38;;;-0.55;65.82
84051;BME280;74137;50.136;19.040;2024-01-15T03:57:09;96773.92;;;-0.55;66.01
84051;BME280;74137;50.136;19.040;2024-01-15T03:59:44;96772.40;;;-0.56;66.01
84051;BME280;74137;50.136;19.040;2024-01-15T04:02:15;96775.02;;;-0.57;65.97
84051;BME280;74137;50.136;19.040;2024-01-15T04:04:45;96770.91;;;-0.58;65.93
84051;BME280;74137;50.136;19.040;2024-01-15T04:07:18;96772.82;;;-0.58;65.75
84051;BME280;74137;50.136;19.040;2024-01-15T04:09:51;96775.27;;;-0.58;66.26
84051;BME280;74137;50.136;19.040;2024-01-15T04:12:22;96768.59;;;-0.59;66.13
84051;BME280;74137;50.136;19.040;2024-01-15T04:14:52;96769.02;;;-0.61;65.81
84051;BME280;74137;50.136;19.040;2024-01-15T04:17:25;96771.27;;;-0.61;66.04
84051;BME280;74137;50.136;19.040;2024-01-15T04:19:55;96764.98;;;-0.60;65.65
84051;BME280;74137;50.136;19.040;2024-01-15T04:22:27;96764.63;;;-0.59;66.03
84051;BME280;74137;50.136;19.040;2024-01-15T04:24:55;96765.49;;;-0.59;66.27
84051;BME280;74137;50.136;19.040;2024-01-15T04:27:27;96769.17;;;-0.61;66.08
84051;BME280;74137;50.136;19.040;2024-01-15T04:29:59;96771.45;;;-0.62;65.79
84051;BME280;74137;50.136;19.040;2024-01-15T04:32:30;96778.14;;;-0.61;66.03
84051;BME280;74137;50.136;19.040;2024-01-15T04:35:04;96782.41;;;-0.60;66.33
84051;BME280;74137;50.136;19.040;2024-01-15T04:37:34;96786.47;;;-0.59;66.03
84051;BME280;74137;50.136;19.040;2024-01-15T04:40:09;96773.87;;;-0.58;66.00
84051;BME280;74137;50.136;19.040;2024-01-15T04:42:39;96774.59;;;-0.59;65.69
84051;BME280;74137;50.136;19.040;2024-01-15T04:45:12;96781.17;;;-0.59;65.95
84051;BME280;74137;50.136;19.040;2024-01-15T04:47:48;96783.09;;;-0.60;66.07
84051;BME280;74137;50.136;19.040;2024-01-15T04:50:16;96779.50;;;-0.61;66.10
84051;BME280;74137;50.136;19.040;2024-01-15T04:52:53;96771.58;;;-0.61;66.13
84051;BME280;74137;50.136;19.040;2024-01-15T04:55:23;96760.05;;;-0.61;66.03
84051;BME280;74137;50.136;19.040;2024-01-15T04:57:56;96765.25;;;-0.62;66.27
84051;BME280;74137;50.136;19.040;2024-01-15T05:00:25;96759.97;;;-0.63;66.03
84051;BME280;74137;50.136;19.040;2024-01-15T05:02:55;96764.45;;;-0.63;65.77
84051;BME280;74137;50.136;19.040;2024-01-15T05:05:28;96762.90;;;-0.63;66.12
84051;BME280;74137;50.136;19.040;2024-01-15T05:08:01;96763.59;;;-0.63;66.33
84051;BME280;74137;50.136;19.040;2024-01-15T05:10:34;96767.58;;;-0.64;66.04
84051;BME280;74137;50.136;19.040;2024-01-15T05:13:04;96772.27;;;-0.64;66.30
84051;BME280;74137;50.136;19.040;2024-01-15T05:15:34;96774.11;;;-0.64;65.99
84051;BME280;74137;50.136;19.040;2024-01-15T05:18:05;96770.98;;;-0.63;65.76
84051;BME280;74137;50.136;19.040;2024-01-15T05:20:34;96755.83;;;-0.63;66.22
84051;BME280;74137;50.136;19.040;2024-01-15T05:23:05;96758.25;;;-0.63;66.45
84051;BME280;74137;50.136;19.040;2024-01-15T05:25:36;96758.29;;;-0.64;66.35
84051;BME280;74137;50.136;19.040;2024-01-15T05:28:05;96754.11;;;-0.63;66.41
84051;BME280;74137;50.136;19.040;2024-01-15T05:30:35;96754.43;;;-0.63;66.25
84051;BME280;74137;50.136;19.040;2024-01-15T05:33:08;96754.98;;;-0.63;66.23
84051;BME280;74137;50.136;19.040;2024-01-15T05:35:39;96756.55;;;-0.64;66.18
84051;BME280;74137;50.136;19.040;2024-01-15T05:38:09;96763.27;;;-0.64;66.16
84051;BME280;74137;50.136;19.040;2024-01-15T05:40:46;96750.16;;;-0.64;66.32
84051;BME280;74137;50.136;19.040;2024-01-15T05:43:19;96749.44;;;-0.63;66.63
84051;BME280;74137;50.136;19.040;2024-01-15T05:45:47;96745.45;;;-0.62;66.21
84051;BME280;74137;50.136;19.040;2024-01-15T05:48:18;96734.27;;;-0.63;66.57
84051;BME280;74137;50.136;19.040;2024-01-15T05:50:51;96722.07;;;-0.64;66.51
84051;BME280;74137;50.136;19.040;2024-01-15T05:53:24;96728.08;;;-0.63;66.40
84051;BME280;74137;50.136;19.040;2024-01-15T05:55:54;96730.34;;;-0.64;66.24
84051;BME280;74137;50.136;19.040;2024-01-15T05:58:23;96732.59;;;-0.64;66.23
84051;BME280;74137;50.136;19.040;2024-01-15T06:00:57;96742.64;;;-0.65;66.20
84051;BME280;74137;50.136;19.040;2024-01-15T06:03:25;96732.71;;;-0.66;66.18
84051;BME280;74137;50.136;19.040;2024-01-15T06:05:54;96730.64;;;-0.66;66.23
84051;BME280;74137;50.136;19.040;2024-01-15T06:08:29;96740.10;;;-0.66;65.82
84051;BME280;74137;50.136;19.040;2024-01-15T06:11:00;96738.42;;;-0.67;66.04
84051;BME280;74137;50.136;19.040;2024-01-15T06:13:29;96739.14;;;-0.67;66.07
84051;BME280;74137;50.136;19.040;2024-01-15T06:15:57;96740.89;;;-0.68;65.90
84051;BME280;74137;50.136;19.040;2024-01-15T06:18:30;96743.27;;;-0.67;66.01
84051;BME280;74137;50.136;19.040;2024-01-15T06:21:03;96742.63;;;-0.69;66.04
84051;BME280;74137;50.136;19.040;2024-01-15T06:23:34;96744.44;;;-0.70;66.38
84051;BME280;74137;50.136;19.040;2024-01-15T06:26:05;96742.77;;;-0.72;66.02
84051;BME280;74137;50.136;19.040;2024-01-15T06:28:38;96742.50;;;-0.73;66.33
84051;BME280;74137;50.136;19.040;2024-01-15T06:31:06;96740.83;;;-0.74;65.85
84051;BME280;74137;50.136;19.040;2024-01-15T06:33:41;96748.30;;;-0.76;66.20
84051;BME280;74137;50.136;19.040;2024-01-15T06:36:11;96757.12;;;-0.77;66.18
84051;BME280;74137;50.136;19.040;2024-01-15T06:38:44;96757.27;;;-0.76;65.94
84051;BME280;74137;50.136;19.040;2024-01-15T06:41:12;96759.34;;;-0.76;66.35
84051;BME280;74137;50.136;19.040;2024-01-15T06:43:53;96760.38;;;-0.76;66.20
84051;BME280;74137;50.136;19.040;2024-01-15T06:46:22;96755.73;;;-0.76;66.07
84051;BME280;74137;50.136;19.040;2024-01-15T06:48:53;96751.94;;;-0.77;66.04
84051;BME280;74137;50.136;19.040;2024-01-15T06:51:23;96750.94;;;-0.77;66.21
84051;BME280;74137;50.136;19.040;2024-01-15T06:53:54;96751.98;;;-0.78;66.15
84051;BME280;74137;50.136;19.040;2024-01-15T06:56:24;96762.50;;;-0.78;66.18
84051;BME280;74137;50.136;19.040;2024-01-15T06:58:57;96771.77;;;-0.77;66.57
84051;BME280;74137;50.136;19.040;2024-01-15T07:01:29;96775.33;;;-0.75;66.39
84051;BME280;74137;50.136;19.040;2024-01-15T07:03:57;96778.77;;;-0.76;66.16
84051;BME280;74137;50.136;19.040;2024-01-15T07:06:27;96779.98;;;-0.75;66.13
84051;BME280;74137;50.136;19.040;2024-01-15T07:08:58;96792.70;;;-0.75;66.07
84051;BME280;74137;50.136;19.040;2024-01-15T07:11:29;96796.59;;;-0.73;66.00
84051;BME280;74137;50.136;19.040;2024-01-15T07:14:03;96803.60;;;-0.71;66.31
84051;BME280;74137;50.136;19.040;2024-01-15T07:16:33;96811.92;;;-0.69;66.21
84051;BME280;74137;50.136;19.040;2024-01-15T07:19:09;96810.61;;;-0.67;66.40
84051;BME280;74137;50.136;19.040;2024-01-15T07:21:38;96817.23;;;-0.65;66.02
84051;BME280;74137;50.136;19.040;2024-01-15T07:24:11;96814.91;;;-0.62;66.25
84051;BME280;74137;50.136;19.040;2024-01-15T07:26:44;96820.61;;;-0.59;65.94
84051;BME280;74137;50.136;19.040;2024-01-15T07:29:12;96826.17;;;-0.56;65.76
84051;BME280;74137;50.136;19.040;2024-01-15T07:31:49;96829.86;;;-0.53;65.93
84051;BME280;74137;50.136;19.040;2024-01-15T07:34:23;96831.11;;;-0.51;65.84
84051;BME280;74137;50.136;19.040;2024-01-15T07:36:52;96828.98;;;-0.49;65.65
84051;BME280;74137;50.136;19.040;2024-01-15T07:39:24;96832.05;;;-0.49;65.26
84051;BME280;74137;50.136;19.040;2024-01-15T07:41:53;96833.53;;;-0.47;65.14
84051;BME280;74137;50.136;19.040;2024-01-15T07:44:25;96833.25;;;-0.44;64.91
84051;BME280;74137;50.136;19.040;2024-01-15T07:46:56;96839.30;;;-0.41;65.09
84051;BME280;74137;50.136;19.040;2024-01-15T07:49:27;96840.78;;;-0.40;65.02
84051;BME280;74137;50.136;19.040;2024-01-15T07:51:58;96844.95;;;-0.36;65.15
84051;BME280;74137;50.136;19.040;2024-01-15T07:54:31;96835.71;;;-0.34;64.89
84051;BME280;74137;50.136;19.040;2024-01-15T07:57:04;96838.90;;;-0.32;64.80
84051;BME280;74137;50.136;19.040;2024-01-15T07:59:37;96828.45;;;-0.29;64.68
84051;BME280;74137;50.136;19.040;2024-01-15T08:02:05;96838.58;;;-0.28;64.54
84051;BME280;74137;50.136;19.040;2024-01-15T08:04:37;96833.96;;;-0.30;64.84
84051;BME280;74137;50.136;19.040;2024-01-15T08:07:09;96835.07;;;-0.31;64.36
84051;BME280;74137;50.136;19.040;2024-01-15T08:09:37;96836.55;;;-0.33;64.38
84051;BME280;74137;50.136;19.040;2024-01-15T08:12:12;96834.77;;;-0.36;64.58
84051;BME280;74137;50.136;19.040;2024-01-15T08:14:43;96839.74;;;-0.35;64.46
84051;BME280;74137;50.136;19.040;2024-01-15T08:17:16;96843.38;;;-0.36;64.82
84051;BME280;74137;50.136;19.040;2024-01-15T08:19:49;96845.61;;;-0.35;64.62
84051;BME280;74137;50.136;19.040;2024-01-15T08:22:18;96849.95;;;-0.36;64.62
84051;BME280;74137;50.136;19.040;2024-01-15T08:24:51;96851.35;;;-0.37;64.38
84051;BME280;74137;50.136;19.040;2024-01-15T08:27:25;96853.67;;;-0.39;64.62
84051;BME280;74137;50.136;19.040;2024-01-15T08:29:53;96852.96;;;-0.38;64.35
84051;BME280;74137;50.136;19.040;2024-01-15T08:32:29;96851.60;;;-0.39;64.09
84051;BME280;74137;50.136;19.040;2024-01-15T08:34:59;96851.19;;;-0.37;63.92
84051;BME280;74137;50.136;19.040;2024-01-15T08:37:28;96854.41;;;-0.35;64.46
84051;BME280;74137;50.136;19.040;2024-01-15T08:40:01;96855.71;;;-0.38;64.55
84051;BME280;74137;50.136;19.040;2024-01-15T08:42:34;96854.72;;;-0.39;64.75
84051;BME280;74137;50.136;19.040;2024-01-15T08:45:07;96852.00;;;-0.39;65.72
84051;BME280;74137;50.136;19.040;2024-01-15T08:47:37;96857.10;;;-0.38;65.35
84051;BME280;74137;50.136;19.040;2024-01-15T08:50:08;96865.17;;;-0.37;65.36
84051;BME280;74137;50.136;19.040;2024-01-15T08:52:41;96860.27;;;-0.32;64.86
84051;BME280;74137;50.136;19.040;2024-01-15T08:55:09;96856.81;;;-0.16;64.92
84051;BME280;74137;50.136;19.040;2024-01-15T08:57:37;96855.82;;;-0.06;64.45
84051;BME280;74137;50.136;19.040;2024-01-15T09:00:07;96857.27;;;0.01;64.33
84051;BME280;74137;50.136;19.040;2024-01-15T09:02:36;96861.30;;;0.07;64.40
84051;BME280;74137;50.136;19.040;2024-01-15T09:05:10;96863.02;;;0.10;64.37
84051;BME280;74137;50.136;19.040;2024-01-15T09:07:40;96860.91;;;0.18;64.08
84051;BME280;74137;50.136;19.040;2024-01-15T09:10:08;96864.91;;;0.33;64.13
84051;BME280;74137;50.136;19.040;2024-01-15T09:12:45;96876.50;;;0.47;63.78
84051;BME280;74137;50.136;19.040;2024-01-15T09:15:13;96878.67;;;0.52;63.70
84051;BME280;74137;50.136;19.040;2024-01-15T09:17:46;96881.59;;;0.60;63.73
84051;BME280;74137;50.136;19.040;2024-01-15T09:20:17;96876.05;;;0.67;63.29
84051;BME280;74137;50.136;19.040;2024-01-15T09:22:50;96876.45;;;0.73;63.06
84051;BME280;74137;50.136;19.040;2024-01-15T09:25:25;96877.77;;;0.78;62.75
84051;BME280;74137;50.136;19.040;2024-01-15T09:28:01;96875.30;;;0.79;62.38
84051;BME280;74137;50.136;19.040;2024-01-15T09:30:29;96873.39;;;0.83;62.43
84051;BME280;74137;50.136;19.040;2024-01-15T09:33:02;96874.09;;;0.86;62.52
84051;BME280;74137;50.136;19.040;2024-01-15T09:35:32;96867.26;;;0.85;62.52
84051;BME280;74137;50.136;19.040;2024-01-15T09:38:03;96868.54;;;0.86;62.13
84051;BME280;74137;50.136;19.040;2024-01-15T09:40:35;96867.42;;;0.85;61.80
84051;BME280;74137;50.136;19.040;2024-01-15T09:43:08;96866.25;;;0.81;61.51
84051;BME280;74137;50.136;19.040;2024-01-15T09:45:40;96861.82;;;0.80;61.65
84051;BME280;74137;50.136;19.040;2024-01-15T09:48:13;96864.70;;;0.84;61.23
84051;BME280;74137;50.136;19.040;2024-01-15T09:50:46;96864.17;;;0.91;61.18
84051;BME280;74137;50.136;19.040;2024-01-15T09:53:18;96867.27;;;0.91;61.03
84051;BME280;74137;50.136;19.040;2024-01-15T09:55:52;96868.35;;;0.91;60.74
84051;BME280;74137;50.136;19.040;2024-01-15T09:58:23;96869.15;;;0.92;60.72
84051;BME280;74137;50.136;19.040;2024-01-15T10:00:58;96869.05;;;0.98;60.61
84051;BME280;74137;50.136;19.040;2024-01-15T10:03:32;96866.22;;;1.06;60.51
84051;BME280;74137;50.136;19.040;2024-01-15T10:06:03;96860.98;;;1.14;60.34
84051;BME280;74137;50.136;19.040;2024-01-15T10:08:36;96851.59;;;1.18;59.93
84051;BME280;74137;50.136;19.040;2024-01-15T10:11:09;96850.24;;;1.21;60.05
84051;BME280;74137;50.136;19.040;2024-01-15T10:13:45;96847.77;;;1.25;59.68
84051;BME280;74137;50.136;19.040;2024-01-15T10:16:30;96846.70;;;1.30;59.42
84051;BME280;74137;50.136;19.040;2024-01-15T10:19:00;96845.86;;;1.36;59.65
84051;BME280;74137;50.136;19.040;2024-01-15T10:21:34;96847.16;;;1.44;59.36
84051;BME280;74137;50.136;19.040;2024-01-15T10:24:05;96843.70;;;1.51;58.95
84051;BME280;74137;50.136;19.040;2024-01-15T10:26:37;96843.92;;;1.63;59.25
84051;BME280;74137;50.136;19.040;2024-01-15T10:29:05;96845.67;;;1.73;58.91
84051;BME280;74137;50.136;19.040;2024-01-15T10:31:37;96841.33;;;1.76;58.56
84051;BME280;74137;50.136;19.040;2024-01-15T10:34:14;96843.33;;;1.78;58.39
84051;BME280;74137;50.136;19.040;2024-01-15T10:36:46;96841.79;;;1.77;58.37
84051;BME280;74137;50.136;19.040;2024-01-15T10:39:22;96842.63;;;1.75;58.00
84051;BME280;74137;50.136;19.040;2024-01-15T10:41:55;96840.25;;;1.71;57.98
84051;BME280;74137;50.136;19.040;2024-01-15T10:44:29;96836.75;;;1.65;57.68
84051;BME280;74137;50.136;19.040;2024-01-15T10:47:02;96838.45;;;1.59;57.78
84051;BME280;74137;50.136;19.040;2024-01-15T10:49:35;96839.89;;;1.55;57.81
84051;BME280;74137;50.136;19.040;2024-01-15T10:52:05;96838.81;;;1.55;57.72
84051;BME280;74137;50.136;19.040;2024-01-15T10:54:37;96841.98;;;1.54;57.69
84051;BME280;74137;50.136;19.040;2024-01-15T10:57:08;96841.80;;;1.58;57.85
84051;BME280;74137;50.136;19.040;2024-01-15T10:59:44;96835.98;;;1.63;57.68
84051;BME280;74137;50.136;19.040;2024-01-15T11:02:15;96837.13;;;1.64;57.32
84051;BME280;74137;50.136;19.040;2024-01-15T11:04:50;96836.20;;;1.65;57.27
84051;BME280;74137;50.136;19.040;2024-01-15T11:07:22;96841.77;;;1.68;57.20
84051;BME280;74137;50.136;19.040;2024-01-15T11:09:55;96839.56;;;1.71;57.16
84051;BME280;74137;50.136;19.040;2024-01-15T11:12:26;96844.29;;;1.73;57.31
84051;BME280;74137;50.136;19.040;2024-01-15T11:15:04;96836.23;;;1.74;57.15
84051;BME280;74137;50.136;19.040;2024-01-15T11:17:58;96829.65;;;1.72;57.06
84051;BME280;74137;50.136;19.040;2024-01-15T11:20:32;96831.19;;;1.72;57.36
84051;BME280;74137;50.136;19.040;2024-01-15T11:23:09;96827.13;;;1.70;57.09
84051;BME280;74137;50.136;19.040;2024-01-15T11:26:46;96826.22;;;1.64;57.47
84051;BME280;74137;50.136;19.040;2024-01-15T13:58:25;96807.11;;;0.40;60.50
84051;BME280;74137;50.136;19.040;2024-01-15T15:54:05;96859.16;;;-0.42;62.51
84051;BME280;74137;50.136;19.040;2024-01-15T15:56:34;96857.16;;;-0.43;62.26
84051;BME280;74137;50.136;19.040;2024-01-15T15:59:06;96865.94;;;-0.43;62.65
84051;BME280;74137;50.136;19.040;2024-01-15T16:01:37;96864.19;;;-0.42;62.81
84051;BME280;74137;50.136;19.040;2024-01-15T16:04:13;96863.35;;;-0.43;62.94
84051;BME280;74137;50.136;19.040;2024-01-15T16:06:43;96860.60;;;-0.43;62.85
84051;BME280;74137;50.136;19.040;2024-01-15T16:09:16;96864.86;;;-0.42;62.71
84051;BME280;74137;50.136;19.040;2024-01-15T16:11:45;96873.09;;;-0.41;62.89
84051;BME280;74137;50.136;19.040;2024-01-15T16:14:18;96880.98;;;-0.40;62.70
84051;BME280;74137;50.136;19.040;2024-01-15T16:16:49;96875.79;;;-0.40;62.71
84051;BME280;74137;50.136;19.040;2024-01-15T16:19:41;96881.30;;;-0.39;62.94
84051;BME280;74137;50.136;19.040;2024-01-15T16:22:37;96882.55;;;-0.41;63.08
84051;BME280;74137;50.136;19.040;2024-01-15T16:25:30;96880.14;;;-0.40;63.10
84051;BME280;74137;50.136;19.040;2024-01-15T16:28:04;96877.34;;;-0.40;63.17
84051;BME280;74137;50.136;19.040;2024-01-15T16:30:36;96874.67;;;-0.38;62.97
84051;BME280;74137;50.136;19.040;2024-01-15T16:33:12;96868.23;;;-0.36;63.01
84051;BME280;74137;50.136;19.040;2024-01-15T16:35:48;96862.52;;;-0.36;62.95
84051;BME280;74137;50.136;19.040;2024-01-15T16:38:19;96863.77;;;-0.37;63.07
84051;BME280;74137;50.136;19.040;2024-01-15T16:40:49;96867.22;;;-0.37;63.28
84051;BME280;74137;50.136;19.040;2024-01-15T16:43:22;96873.64;;;-0.38;63.22
84051;BME280;74137;50.136;19.040;2024-01-15T16:45:55;96875.04;;;-0.38;63.32
84051;BME280;74137;50.136;19.040;2024-01-15T16:48:24;96875.38;;;-0.38;63.12
84051;BME280;74137;50.136;19.040;2024-01-15T16:50:55;96879.50;;;-0.38;63.64
84051;BME280;74137;50.136;19.040;2024-01-15T16:53:23;96880.34;;;-0.37;63.49
84051;BME280;74137;50.136;19.040;2024-01-15T16:55:54;96877.94;;;-0.38;63.37
84051;BME280;74137;50.136;19.040;2024-01-15T16:58:22;96874.72;;;-0.39;63.31
84051;BME280;74137;50.136;19.040;2024-01-15T17:00:50;96871.98;;;-0.39;63.43
84051;BME280;74137;50.136;19.040;2024-01-15T17:03:20;96867.13;;;-0.39;63.24
84051;BME280;74137;50.136;19.040;2024-01-15T17:05:53;96872.31;;;-0.39;63.37
84051;BME280;74137;50.136;19.040;2024-01-15T17:08:25;96870.95;;;-0.39;63.26
84051;BME280;74137;50.136;19.040;2024-01-15T17:10:56;96871.65;;;-0.40;63.69
84051;BME280;74137;50.136;19.040;2024-01-15T17:13:28;96871.21;;;-0.42;62.93
84051;BME280;74137;50.136;19.040;2024-01-15T17:15:57;96865.60;;;-0.43;63.18
84051;BME280;74137;50.136;19.040;2024-01-15T17:18:25;96864.72;;;-0.42;63.54
84051;BME280;74137;50.136;19.040;2024-01-15T17:20:55;96863.50;;;-0.42;63.43
84051;BME280;74137;50.136;19.040;2024-01-15T17:23:23;96870.23;;;-0.43;63.49
84051;BME280;74137;50.136;19.040;2024-01-15T17:25:58;96875.09;;;-0.44;63.18
84051;BME280;74137;50.136;19.040;2024-01-15T17:28:27;96876.33;;;-0.44;63.68
84051;BME280;74137;50.136;19.040;2024-01-15T17:30:57;96880.51;;;-0.45;63.24
84051;BME280;74137;50.136;19.040;2024-01-15T17:33:28;96883.69;;;-0.43;62.87
84051;BME280;74137;50.136;19.040;2024-01-15T17:36:01;96891.26;;;-0.42;63.38
84051;BME280;74137;50.136;19.040;2024-01-15T17:38:34;96895.04;;;-0.42;63.29
84051;BME280;74137;50.136;19.040;2024-01-15T17:41:06;96897.81;;;-0.43;63.50